createdAt,value
2022-10-11T00:01:33.760Z,958.4
2022-10-11T00:03:17.461Z,958.1
2022-10-11T00:05:01.167Z,955.6
2022-10-11T00:06:44.861Z,955.4
2022-10-11T00:08:28.629Z,956.3
2022-10-11T00:10:12.331Z,958.3
2022-10-11T00:11:55.999Z,958.6
2022-10-11T00:13:39.775Z,958.4
2022-10-11T00:15:23.374Z,952.5
2022-10-11T00:18:50.781Z,958.3
2022-10-11T00:20:34.479Z,958.5
2022-10-11T00:22:18.183Z,954.8
2022-10-11T00:25:45.626Z,956.4
2022-10-11T00:27:29.324Z,954.9
2022-10-11T00:29:12.994Z,952.4
2022-10-11T00:30:56.700Z,949.8
2022-10-11T00:34:24.118Z,959.4
2022-10-11T00:36:07.833Z,957
2022-10-11T00:37:51.593Z,956.3
2022-10-11T00:39:35.210Z,954.7
2022-10-11T00:41:18.918Z,958
2022-10-11T00:43:02.619Z,962.4
2022-10-11T00:44:53.346Z,959.7
2022-10-11T00:46:30.040Z,956.5
2022-10-11T00:48:13.741Z,958.3
2022-10-11T00:49:57.439Z,955.9
2022-10-11T00:53:24.888Z,954.6
2022-10-11T00:56:52.237Z,947.2
2022-10-11T00:58:35.952Z,949.3
2022-10-11T01:02:03.367Z,951.8
2022-10-11T01:03:47.039Z,948.9
2022-10-11T01:07:14.468Z,953.3
2022-10-11T01:12:25.582Z,957.1
2022-10-11T01:15:53.073Z,955.9
2022-10-11T01:21:04.093Z,962.5
2022-10-11T01:24:31.508Z,964.2
2022-10-11T01:26:15.175Z,964.2
2022-10-11T01:27:58.876Z,962.5
2022-10-11T01:29:42.573Z,964.1
2022-10-11T01:31:26.290Z,965.2
2022-10-11T01:33:09.986Z,963.7
2022-10-11T01:34:53.693Z,960
2022-10-11T01:36:37.428Z,961.1
2022-10-11T01:38:21.091Z,962.3
2022-10-11T01:40:04.818Z,962.9
2022-10-11T01:41:48.519Z,966.3
2022-10-11T01:43:32.192Z,967.2
2022-10-11T01:45:15.915Z,974.1
2022-10-11T01:46:59.595Z,970.7
2022-10-11T01:48:43.292Z,962.9
2022-10-11T01:50:26.995Z,956.7
2022-10-11T01:52:10.768Z,956
2022-10-11T01:53:54.408Z,951.6
2022-10-11T01:55:38.142Z,949.1
2022-10-11T01:57:21.824Z,949.4
2022-10-11T01:59:05.519Z,949.8
2022-10-11T02:00:49.220Z,947.4
2022-10-11T02:02:32.921Z,950.1
2022-10-11T02:04:16.618Z,950
2022-10-11T02:06:00.393Z,950.9
2022-10-11T02:07:44.032Z,953.2
2022-10-11T02:09:27.731Z,954.4
2022-10-11T02:11:11.552Z,955.9
2022-10-11T02:12:55.137Z,960.5
2022-10-11T02:14:38.842Z,959.4
2022-10-11T02:16:22.536Z,960.3
2022-10-11T02:18:06.233Z,961.5
2022-10-11T02:19:49.944Z,959.9
2022-10-11T02:21:33.639Z,958
2022-10-11T02:23:17.343Z,959.2
2022-10-11T02:25:01.043Z,957.1
2022-10-11T02:26:44.747Z,957.6
2022-10-11T02:28:28.450Z,956.4
2022-10-11T02:30:12.146Z,961.2
2022-10-11T02:31:55.852Z,960.5
2022-10-11T02:33:39.552Z,958.8
2022-10-11T02:35:23.353Z,963.5
2022-10-11T02:37:07.025Z,967
2022-10-11T02:38:50.663Z,970.4
2022-10-11T02:40:34.391Z,973
2022-10-11T02:42:18.131Z,973.9
2022-10-11T02:44:01.800Z,971.6
2022-10-11T02:45:45.466Z,971
2022-10-11T02:47:29.172Z,969.2
2022-10-11T02:49:12.875Z,969.3
2022-10-11T02:50:56.582Z,965.9
2022-10-11T02:52:40.284Z,966.5
2022-10-11T02:54:24.033Z,967.1
2022-10-11T02:56:07.745Z,964
2022-10-11T02:57:51.383Z,962.3
2022-10-11T02:59:35.094Z,961.5
2022-10-11T03:01:18.785Z,961.6
2022-10-11T03:03:02.501Z,963.1
2022-10-11T03:04:46.205Z,960.2
2022-10-11T03:06:29.905Z,962.1
2022-10-11T03:08:13.602Z,963.1
2022-10-11T03:09:57.310Z,962.7
2022-10-11T03:11:41.000Z,964.9
2022-10-11T03:13:24.731Z,966.1
2022-10-11T03:15:08.411Z,964.9
2022-10-11T03:16:52.126Z,966.2
2022-10-11T03:18:35.815Z,964.6
2022-10-11T03:20:19.518Z,966.7
2022-10-11T03:22:03.215Z,969.3
2022-10-11T03:23:46.941Z,970.5
2022-10-11T03:25:30.624Z,972
2022-10-11T03:27:14.357Z,972.3
2022-10-11T03:28:58.022Z,970.5
2022-10-11T03:30:41.759Z,969.3
2022-10-11T03:32:25.433Z,967.2
2022-10-11T03:34:09.177Z,967.5
2022-10-11T03:35:52.879Z,967.8
2022-10-11T03:37:36.547Z,968.1
2022-10-11T03:39:20.250Z,966.3
2022-10-11T03:41:03.958Z,968.1
2022-10-11T03:42:47.698Z,971.2
2022-10-11T03:44:31.352Z,968.7
2022-10-11T03:46:15.075Z,966.4
2022-10-11T03:47:58.795Z,961.9
2022-10-11T03:49:42.457Z,963.2
2022-10-11T03:51:26.159Z,961.8
2022-10-11T03:53:09.931Z,960.8
2022-10-11T03:54:53.557Z,961
2022-10-11T03:56:37.268Z,959.4
2022-10-11T03:58:20.970Z,962.8
2022-10-11T04:00:04.710Z,965.5
2022-10-11T04:01:48.356Z,969.5
2022-10-11T04:03:32.074Z,965
2022-10-11T04:05:15.770Z,965.9
2022-10-11T04:06:59.498Z,969.2
2022-10-11T04:08:43.245Z,973.1
2022-10-11T04:10:27.002Z,977.2
2022-10-11T04:12:10.665Z,979.2
2022-10-11T04:13:54.317Z,976.3
2022-10-11T04:15:38.093Z,977.7
2022-10-11T04:17:21.805Z,977.9
2022-10-11T04:19:05.404Z,977.3
2022-10-11T04:20:49.117Z,975.1
2022-10-11T04:22:32.830Z,983.9
2022-10-11T04:24:16.559Z,984.4
2022-10-11T04:26:00.275Z,986.6
2022-10-11T04:27:43.950Z,983.3
2022-10-11T04:29:27.599Z,978.1
2022-10-11T04:31:11.382Z,976.5
2022-10-11T04:32:55.103Z,976.5
2022-10-11T04:34:38.730Z,977.9
2022-10-11T04:36:22.537Z,980.9
2022-10-11T04:38:06.122Z,980
2022-10-11T04:39:49.849Z,981.1
2022-10-11T04:41:33.526Z,982.9
2022-10-11T04:43:17.218Z,980.1
2022-10-11T04:45:00.941Z,985
2022-10-11T04:46:44.629Z,986
2022-10-11T04:48:28.319Z,990.2
2022-10-11T04:50:12.038Z,992.1
2022-10-11T04:51:55.748Z,994.4
2022-10-11T04:53:39.442Z,996.1
2022-10-11T04:55:23.139Z,996.6
2022-10-11T04:57:06.834Z,991.3
2022-10-11T04:58:50.556Z,989.8
2022-10-11T05:00:34.255Z,989.2
2022-10-11T05:02:17.938Z,987.8
2022-10-11T05:04:01.651Z,986.9
2022-10-11T05:05:45.365Z,987.9
2022-10-11T05:07:29.061Z,1083.8
2022-10-11T05:09:12.759Z,1248.5
2022-10-11T05:10:56.466Z,1233.6
2022-10-11T05:12:40.261Z,1201.6
2022-10-11T05:14:23.913Z,1191.2
2022-10-11T05:16:07.578Z,1190.5
2022-10-11T05:17:51.304Z,1183.8
2022-10-11T05:19:35.017Z,1193.7
2022-10-11T05:21:18.693Z,1227.2
2022-10-11T05:23:02.406Z,1231.6
2022-10-11T05:24:46.086Z,1243.2
2022-10-11T05:26:29.812Z,1262.6
2022-10-11T05:28:13.492Z,1275.4
2022-10-11T05:29:57.192Z,1279.6
2022-10-11T05:31:40.890Z,1283.3
2022-10-11T05:33:24.625Z,1288.8
2022-10-11T05:35:08.304Z,1293.7
2022-10-11T05:36:52.012Z,1291.5
2022-10-11T05:38:35.695Z,1350.8
2022-10-11T05:40:19.408Z,1358.9
2022-10-11T05:42:03.160Z,1334
2022-10-11T05:43:46.844Z,1312.4
2022-10-11T05:45:30.516Z,1315.6
2022-10-11T05:47:14.243Z,1313
2022-10-11T05:48:57.950Z,1302.2
2022-10-11T05:52:25.328Z,1298.6
2022-10-11T05:54:09.040Z,1299.2
2022-10-11T05:55:52.741Z,1292.9
2022-10-11T05:57:36.438Z,1298.2
2022-10-11T05:59:20.148Z,1313.2
2022-10-11T06:01:03.847Z,1306.8
2022-10-11T06:02:47.541Z,1298.2
2022-10-11T06:04:31.249Z,1294.5
2022-10-11T06:06:14.947Z,1294.3
2022-10-11T06:07:58.700Z,1291.9
2022-10-11T06:09:42.377Z,1290.5
2022-10-11T06:11:26.057Z,1286
2022-10-11T06:13:09.783Z,1282.4
2022-10-11T06:14:53.461Z,1283.4
2022-10-11T06:16:37.269Z,1282.4
2022-10-11T06:18:20.890Z,1277.4
2022-10-11T06:20:04.578Z,1276.7
2022-10-11T06:21:48.335Z,1275.1
2022-10-11T06:23:31.986Z,1270.9
2022-10-11T06:25:15.677Z,1269.3
2022-10-11T06:26:59.414Z,1268.2
2022-10-11T06:28:43.126Z,1267.5
2022-10-11T06:30:26.801Z,1265.1
2022-10-11T06:32:10.487Z,1264
2022-10-11T06:33:54.192Z,1263.6
2022-10-11T06:35:37.911Z,1263.3
2022-10-11T06:37:21.642Z,1265.2
2022-10-11T06:39:05.316Z,1268.8
2022-10-11T06:40:49.008Z,1334.7
2022-10-11T06:42:32.724Z,1408.5
2022-10-11T06:44:16.415Z,1291.9
2022-10-11T06:46:00.178Z,1289.8
2022-10-11T06:47:43.913Z,1296.8
2022-10-11T06:49:27.571Z,1294.4
2022-10-11T06:51:11.225Z,1299.8
2022-10-11T06:52:55.059Z,1301.5
2022-10-11T06:54:38.708Z,1297.7
2022-10-11T06:56:22.459Z,1291.4
2022-10-11T06:58:06.183Z,1286.7
2022-10-11T06:59:49.732Z,1288
2022-10-11T07:01:33.444Z,1289.6
2022-10-11T07:03:17.170Z,1291.3
2022-10-11T07:05:00.870Z,1291.8
2022-10-11T07:06:44.540Z,1290.9
2022-10-11T07:08:28.247Z,1282.4
2022-10-11T07:10:11.953Z,1279.9
2022-10-11T07:11:55.646Z,1282.6
2022-10-11T07:13:39.431Z,1279.8
2022-10-11T07:15:23.199Z,1280.5
2022-10-11T07:17:06.896Z,1277.1
2022-10-11T07:18:50.468Z,1274.2
2022-10-11T07:20:34.289Z,1275.5
2022-10-11T07:22:18.071Z,1271.6
2022-10-11T07:24:01.725Z,1272.4
2022-10-11T07:25:45.413Z,1275
2022-10-11T07:27:28.986Z,1278.2
2022-10-11T07:29:12.682Z,1275.5
2022-10-11T07:30:56.478Z,1269.6
2022-10-11T07:32:40.217Z,1270.2
2022-10-11T07:34:23.880Z,1272.5
2022-10-11T07:36:07.544Z,1273.6
2022-10-11T07:37:51.182Z,1273.7
2022-10-11T07:39:34.899Z,1270.8
2022-10-11T07:41:18.626Z,1271.7
2022-10-11T07:43:02.397Z,1274.3
2022-10-11T07:44:46.143Z,1273.1
2022-10-11T07:46:29.688Z,1277
2022-10-11T07:48:13.535Z,1274
2022-10-11T07:49:57.096Z,1272.9
2022-10-11T07:51:40.798Z,1271.1
2022-10-11T07:53:24.567Z,1274.2
2022-10-11T07:55:08.317Z,1277
2022-10-11T07:56:52.077Z,1277.8
2022-10-11T07:58:35.773Z,1280.9
2022-10-11T08:00:19.400Z,1285.8
2022-10-11T08:02:03.128Z,1288.7
2022-10-11T08:03:46.850Z,1288.1
2022-10-11T08:05:30.584Z,1285.9
2022-10-11T08:07:14.217Z,1287.1
2022-10-11T08:08:57.955Z,1288.1
2022-10-11T08:10:41.690Z,1285.4
2022-10-11T08:12:25.369Z,1283.4
2022-10-11T08:14:09.051Z,1285.4
2022-10-11T08:15:52.777Z,1284.3
2022-10-11T08:17:36.446Z,1283.6
2022-10-11T08:19:20.176Z,1285.5
2022-10-11T08:21:03.887Z,1284.7
2022-10-11T08:22:47.589Z,1286.3
2022-10-11T08:24:31.260Z,1286.4
2022-10-11T08:26:14.973Z,1287.7
2022-10-11T08:27:58.703Z,1290.9
2022-10-11T08:29:42.425Z,1291.6
2022-10-11T08:31:26.088Z,1294.6
2022-10-11T08:33:09.808Z,1295.7
2022-10-11T08:34:53.493Z,1296.9
2022-10-11T08:36:37.209Z,1301.5
2022-10-11T08:38:20.903Z,1306.2
2022-10-11T08:40:04.492Z,1307.9
2022-10-11T08:41:48.310Z,1314.4
2022-10-11T08:43:31.880Z,1313.4
2022-10-11T08:45:15.603Z,1314.1
2022-10-11T08:48:42.981Z,1312.7
2022-10-11T08:50:26.697Z,1314.1
2022-10-11T08:52:10.396Z,1318.8
2022-10-11T08:53:54.159Z,1318.1
2022-10-11T08:55:37.798Z,1321.1
2022-10-11T08:57:21.561Z,1317.3
2022-10-11T08:59:05.254Z,1318.6
2022-10-11T09:00:48.912Z,1322.5
2022-10-11T09:02:32.662Z,1326.6
2022-10-11T09:04:16.316Z,1324.2
2022-10-11T09:06:00.024Z,1323.6
2022-10-11T09:07:43.714Z,1320.2
2022-10-11T09:09:27.425Z,1319.7
2022-10-11T09:11:11.129Z,1323.5
2022-10-11T09:12:54.833Z,1321.7
2022-10-11T09:14:38.533Z,1317
2022-10-11T09:16:22.238Z,1313.9
2022-10-11T09:18:05.950Z,1314.1
2022-10-11T09:19:49.649Z,1312
2022-10-11T09:21:33.344Z,1310.4
2022-10-11T09:23:17.073Z,1307.1
2022-10-11T09:25:00.764Z,1309.1
2022-10-11T09:26:44.459Z,1311.5
2022-10-11T09:28:28.274Z,1313.4
2022-10-11T09:30:11.857Z,1315.1
2022-10-11T09:31:55.561Z,1313.4
2022-10-11T09:33:39.265Z,1315.8
2022-10-11T09:35:22.957Z,1319.5
2022-10-11T09:37:06.721Z,1318.6
2022-10-11T09:38:50.374Z,1317.9
2022-10-11T09:40:34.076Z,1320.5
2022-10-11T09:42:17.775Z,1323.7
2022-10-11T09:44:01.466Z,1324.9
2022-10-11T09:45:45.174Z,1324.8
2022-10-11T09:47:28.910Z,1323.1
2022-10-11T09:49:12.584Z,1322.2
2022-10-11T09:50:56.406Z,1322.1
2022-10-11T09:52:39.984Z,1319.6
2022-10-11T09:54:23.687Z,1320.1
2022-10-11T09:57:51.102Z,1322.1
2022-10-11T09:59:34.802Z,1321.9
2022-10-11T10:01:18.505Z,1319.1
2022-10-11T10:03:02.197Z,1320.3
2022-10-11T10:04:45.903Z,1323.1
2022-10-11T10:06:29.630Z,1355.9
2022-10-11T10:08:13.306Z,1606.7
2022-10-11T10:09:57.027Z,1652.8
2022-10-11T10:11:40.707Z,1590.7
2022-10-11T10:13:24.411Z,1667.2
2022-10-11T10:15:08.115Z,1551.7
2022-10-11T10:16:51.843Z,1525.6
2022-10-11T10:18:35.519Z,1515.6
2022-10-11T10:20:19.212Z,1459.8
2022-10-11T10:22:02.943Z,1440.9
2022-10-11T10:23:46.695Z,1439.2
2022-10-11T10:25:30.341Z,1446.4
2022-10-11T10:27:14.027Z,1450.6
2022-10-11T10:28:57.844Z,1443.8
2022-10-11T10:30:41.453Z,1445.7
2022-10-11T10:32:25.136Z,1447.8
2022-10-11T10:34:08.895Z,1446.8
2022-10-11T10:35:52.539Z,1451.2
2022-10-11T10:37:36.243Z,1456.5
2022-10-11T10:39:19.960Z,1459
2022-10-11T10:41:03.670Z,1470.3
2022-10-11T10:42:47.355Z,1471.1
2022-10-11T10:44:31.053Z,1465.8
2022-10-11T10:46:14.765Z,1459.5
2022-10-11T10:47:58.468Z,1455.3
2022-10-11T10:49:42.156Z,1451.5
2022-10-11T10:51:25.893Z,1448.7
2022-10-11T10:53:09.562Z,1445.4
2022-10-11T10:54:53.268Z,1442.1
2022-10-11T10:56:37.014Z,1435.4
2022-10-11T10:58:20.674Z,1437.6
2022-10-11T11:00:04.373Z,1439.9
2022-10-11T11:01:48.078Z,1438.9
2022-10-11T11:03:31.780Z,1439.3
2022-10-11T11:05:15.521Z,1439.5
2022-10-11T11:06:59.179Z,1440
2022-10-11T11:08:42.901Z,1446.4
2022-10-11T11:10:26.586Z,1449.8
2022-10-11T11:12:10.283Z,1452.9
2022-10-11T11:13:54.057Z,1455.2
2022-10-11T11:15:37.685Z,1456.3
2022-10-11T11:17:21.390Z,1451.3
2022-10-11T11:19:05.104Z,1445.7
2022-10-11T11:20:48.867Z,1446
2022-10-11T11:22:32.494Z,1444.9
2022-10-11T11:24:16.200Z,1444.1
2022-10-11T11:25:59.905Z,1445.8
2022-10-11T11:27:43.611Z,1448.7
2022-10-11T11:29:27.305Z,1455.8
2022-10-11T11:31:11.060Z,1450.9
2022-10-11T11:32:54.716Z,1442.7
2022-10-11T11:34:38.407Z,1440.4
2022-10-11T11:36:22.136Z,1435.7
2022-10-11T11:38:05.830Z,1431.9
2022-10-11T11:39:49.513Z,1430.4
2022-10-11T11:41:33.221Z,1429.2
2022-10-11T11:43:16.964Z,1429.4
2022-10-11T11:45:00.626Z,1431.7
2022-10-11T11:46:44.332Z,1428.3
2022-10-11T11:48:28.024Z,1430.9
2022-10-11T11:50:11.777Z,1436.3
2022-10-11T11:51:55.478Z,1440
2022-10-11T11:53:39.137Z,1440.4
2022-10-11T11:55:22.848Z,1437.4
2022-10-11T11:57:06.646Z,1431.3
2022-10-11T11:58:50.373Z,1428
2022-10-11T12:00:33.947Z,1421.5
2022-10-11T12:02:17.645Z,1420.2
2022-10-11T12:04:01.347Z,1417.7
2022-10-11T12:05:45.066Z,1419
2022-10-11T12:07:28.751Z,1414.9
2022-10-11T12:09:12.455Z,1408.3
2022-10-11T12:10:56.166Z,1403.4
2022-10-11T12:12:39.853Z,1404.5
2022-10-11T12:14:23.559Z,1404.3
2022-10-11T12:16:07.263Z,1407.9
2022-10-11T12:17:50.963Z,1406.5
2022-10-11T12:19:34.670Z,1403.8
2022-10-11T12:21:18.367Z,1409
2022-10-11T12:23:02.076Z,1409.3
2022-10-11T12:24:45.770Z,1413.9
2022-10-11T12:26:29.474Z,1412.7
2022-10-11T12:28:13.181Z,1413.1
2022-10-11T12:29:56.873Z,1413.1
2022-10-11T12:31:40.577Z,1413.9
2022-10-11T12:33:24.374Z,1413.2
2022-10-11T12:35:08.073Z,1412.1
2022-10-11T12:36:51.686Z,1412.9
2022-10-11T12:38:35.381Z,1414.4
2022-10-11T12:40:19.123Z,1413.4
2022-10-11T12:42:02.863Z,1415.6
2022-10-11T12:43:46.495Z,1414.4
2022-10-11T12:45:30.200Z,1416.2
2022-10-11T12:47:13.899Z,1418.3
2022-10-11T12:48:57.605Z,1416.9
2022-10-11T12:50:41.330Z,1415.1
2022-10-11T12:52:24.998Z,1417
2022-10-11T12:54:08.722Z,1416
2022-10-11T12:55:52.413Z,1409.8
2022-10-11T12:57:36.111Z,1411.4
2022-10-11T12:59:19.813Z,1414.1
2022-10-11T13:01:03.511Z,1418.8
2022-10-11T13:02:47.232Z,1419.5
2022-10-11T13:04:30.944Z,1416.5
2022-10-11T13:06:14.615Z,1415.7
2022-10-11T13:07:58.324Z,1414.7
2022-10-11T13:09:42.034Z,1410.9
2022-10-11T13:11:25.720Z,1404.2
2022-10-11T13:13:09.435Z,1400.6
2022-10-11T13:14:53.130Z,1399.3
2022-10-11T13:16:36.831Z,1403.2
2022-10-11T13:18:20.543Z,1397
2022-10-11T13:20:04.242Z,1399
2022-10-11T13:21:47.950Z,1399.1
2022-10-11T13:23:31.652Z,1395.7
2022-10-11T13:25:15.349Z,1394.2
2022-10-11T13:26:59.053Z,1397.2
2022-10-11T13:28:42.746Z,1398.2
2022-10-11T13:30:26.455Z,1401.6
2022-10-11T13:32:10.154Z,1403.1
2022-10-11T13:33:53.851Z,1405.8
2022-10-11T13:35:37.556Z,1403.8
2022-10-11T13:37:21.262Z,1401.2
2022-10-11T13:39:04.966Z,1405.5
2022-10-11T13:40:48.668Z,1409.8
2022-10-11T13:42:32.394Z,1413
2022-10-11T13:44:16.070Z,1415.3
2022-10-11T13:45:59.782Z,1414.3
2022-10-11T13:47:43.471Z,1414.9
2022-10-11T13:49:27.200Z,1414.5
2022-10-11T13:51:10.889Z,1412.4
2022-10-11T13:52:54.588Z,1413.7
2022-10-11T13:54:38.298Z,1415.6
2022-10-11T13:56:21.988Z,1416.7
2022-10-11T13:58:05.701Z,1412.6
2022-10-11T13:59:49.406Z,1412
2022-10-11T14:01:33.092Z,1411.2
2022-10-11T14:03:16.797Z,1415
2022-10-11T14:05:00.596Z,1419.6
2022-10-11T14:06:44.209Z,1421.8
2022-10-11T14:08:27.922Z,1426.4
2022-10-11T14:10:11.612Z,1429.2
2022-10-11T14:11:55.317Z,1435.6
2022-10-11T14:13:39.020Z,1430.6
2022-10-11T14:15:22.722Z,1427
2022-10-11T14:17:06.423Z,1430.4
2022-10-11T14:18:50.128Z,1440.7
2022-10-11T14:20:33.831Z,1447.5
2022-10-11T14:22:17.539Z,1442.5
2022-10-11T14:24:01.233Z,1439.5
2022-10-11T14:25:44.938Z,1438.3
2022-10-11T14:27:28.693Z,1440
2022-10-11T14:29:12.342Z,1438
2022-10-11T14:30:56.048Z,1437.2
2022-10-11T14:32:39.750Z,1438.8
2022-10-11T14:34:23.454Z,1437.3
2022-10-11T14:36:07.156Z,1438
2022-10-11T14:37:50.873Z,1436.5
2022-10-11T14:39:34.600Z,1433.4
2022-10-11T14:41:18.275Z,1433
2022-10-11T14:43:01.956Z,1432.2
2022-10-11T14:44:45.662Z,1434.8
2022-10-11T14:46:29.419Z,1434
2022-10-11T14:48:13.077Z,1431.8
2022-10-11T14:49:56.793Z,1433.6
2022-10-11T14:51:40.481Z,1437.3
2022-10-11T14:53:24.176Z,1439.3
2022-10-11T14:55:07.901Z,1438.3
2022-10-11T14:56:51.571Z,1439.6
2022-10-11T14:58:35.289Z,1439.1
2022-10-11T15:00:18.984Z,1437.4
2022-10-11T15:02:02.706Z,1438.3
2022-10-11T15:03:46.394Z,1441.3
2022-10-11T15:05:30.130Z,1441.6
2022-10-11T15:07:13.797Z,1440.1
2022-10-11T15:08:57.558Z,1437.4
2022-10-11T15:10:41.200Z,1438.4
2022-10-11T15:12:24.962Z,1437.4
2022-10-11T15:14:08.604Z,1436.2
2022-10-11T15:15:52.325Z,1435.4
2022-10-11T15:17:36.008Z,1434.7
2022-10-11T15:19:19.719Z,1434.4
2022-10-11T15:21:03.408Z,1442.8
2022-10-11T15:22:47.116Z,1441.3
2022-10-11T15:24:30.820Z,1444
2022-10-11T15:26:14.621Z,1436.8
2022-10-11T15:27:58.275Z,1441.5
2022-10-11T15:29:41.931Z,1444.3
2022-10-11T15:31:25.711Z,1440.7
2022-10-11T15:33:09.321Z,1446.2
2022-10-11T15:34:53.028Z,1446.8
2022-10-11T15:36:36.745Z,1452.6
2022-10-11T15:38:20.442Z,1455.2
2022-10-11T15:40:04.143Z,1453.3
2022-10-11T15:41:47.920Z,1451.3
2022-10-11T15:43:31.557Z,1447.3
2022-10-11T15:45:15.254Z,1447.8
2022-10-11T15:46:59.010Z,1441.8
2022-10-11T15:48:42.663Z,1439.9
2022-10-11T15:50:26.362Z,1440
2022-10-11T15:52:10.059Z,1443.9
2022-10-11T15:53:53.770Z,1445.8
2022-10-11T15:55:37.471Z,1446.6
2022-10-11T15:57:21.166Z,1446.6
2022-10-11T15:59:04.914Z,1450.4
2022-10-11T16:00:48.575Z,1452
2022-10-11T16:02:32.274Z,1447.9
2022-10-11T16:04:15.983Z,1449.9
2022-10-11T16:05:59.813Z,1442.8
2022-10-11T16:07:43.444Z,1423.9
2022-10-11T16:09:27.102Z,1410.9
2022-10-11T16:11:10.795Z,1387.8
2022-10-11T16:12:54.561Z,1368.4
2022-10-11T16:14:38.189Z,1363
2022-10-11T16:16:21.892Z,1366
2022-10-11T16:18:05.609Z,1367.1
2022-10-11T16:19:49.326Z,1370.1
2022-10-11T16:21:33.010Z,1379.3
2022-10-11T16:23:16.723Z,1454
2022-10-11T16:25:00.434Z,1467.9
2022-10-11T16:26:44.126Z,1453.3
2022-10-11T16:28:27.796Z,1457.4
2022-10-11T16:30:11.504Z,1476.7
2022-10-11T16:31:55.213Z,1482.9
2022-10-11T16:33:38.957Z,1477.5
2022-10-11T16:35:22.610Z,1481.1
2022-10-11T16:37:06.408Z,1486.8
2022-10-11T16:38:50.022Z,1492.8
2022-10-11T16:40:33.717Z,1493.8
2022-10-11T16:42:17.432Z,1507.4
2022-10-11T16:44:01.128Z,1507.9
2022-10-11T16:45:44.832Z,1508
2022-10-11T16:47:28.549Z,1511.9
2022-10-11T16:49:12.234Z,1517
2022-10-11T16:50:55.933Z,1512.6
2022-10-11T16:52:39.631Z,1505.9
2022-10-11T16:54:23.354Z,1506
2022-10-11T16:56:07.038Z,1500.3
2022-10-11T16:57:50.744Z,1493.1
2022-10-11T16:59:34.449Z,1485.6
2022-10-11T17:01:18.143Z,1479
2022-10-11T17:03:01.848Z,1478.8
2022-10-11T17:04:45.557Z,1475.7
2022-10-11T17:06:29.271Z,1472.2
2022-10-11T17:08:12.969Z,1466.5
2022-10-11T17:09:56.653Z,1462.4
2022-10-11T17:11:40.376Z,1460.6
2022-10-11T17:13:24.126Z,1459.4
2022-10-11T17:15:07.762Z,1459.4
2022-10-11T17:16:51.472Z,1459
2022-10-11T17:18:35.175Z,1450
2022-10-11T17:20:18.872Z,1439.6
2022-10-11T17:22:02.652Z,1440.3
2022-10-11T17:23:46.274Z,1439.8
2022-10-11T17:25:29.977Z,1440.5
2022-10-11T17:27:13.712Z,1435.3
2022-10-11T17:28:57.432Z,1432.2
2022-10-11T17:30:41.085Z,1443
2022-10-11T17:32:24.841Z,1465.6
2022-10-11T17:34:08.526Z,1484.8
2022-10-11T17:35:52.205Z,1488.5
2022-10-11T17:37:35.909Z,1479.3
2022-10-11T17:39:19.623Z,1462.9
2022-10-11T17:41:03.338Z,1449.2
2022-10-11T17:42:47.023Z,1448.8
2022-10-11T17:44:30.728Z,1448.2
2022-10-11T17:46:14.504Z,1442.5
2022-10-11T17:47:58.138Z,1439.2
2022-10-11T17:49:41.857Z,1438.3
2022-10-11T17:51:25.518Z,1436.1
2022-10-11T17:53:09.221Z,1426.5
2022-10-11T17:54:52.932Z,1418.6
2022-10-11T17:56:36.619Z,1426
2022-10-11T17:58:20.356Z,1436
2022-10-11T18:00:04.034Z,1430.5
2022-10-11T18:01:47.769Z,1432
2022-10-11T18:03:31.448Z,1436.9
2022-10-11T18:05:15.156Z,1439.1
2022-10-11T18:06:58.841Z,1440.5
2022-10-11T18:08:42.564Z,1443.7
2022-10-11T18:10:26.239Z,1448.5
2022-10-11T18:12:09.989Z,1442.4
2022-10-11T18:13:53.692Z,1438.6
2022-10-11T18:15:37.345Z,1440
2022-10-11T18:17:21.089Z,1439.4
2022-10-11T18:19:04.757Z,1437.5
2022-10-11T18:20:48.456Z,1436
2022-10-11T18:22:32.169Z,1432.7
2022-10-11T18:24:15.861Z,1436
2022-10-11T18:25:59.719Z,1445.2
2022-10-11T18:27:43.270Z,1443.6
2022-10-11T18:29:26.960Z,1444.5
2022-10-11T18:31:10.685Z,1446.8
2022-10-11T18:32:54.406Z,1448.4
2022-10-11T18:34:38.090Z,1446.9
2022-10-11T18:36:21.782Z,1444.6
2022-10-11T18:38:05.510Z,1439.6
2022-10-11T18:39:49.180Z,1440.6
2022-10-11T18:41:32.887Z,1444
2022-10-11T18:43:16.580Z,1448
2022-10-11T18:45:00.282Z,1445.9
2022-10-11T18:46:43.993Z,1446.1
2022-10-11T18:48:27.690Z,1451.1
2022-10-11T18:50:11.405Z,1450.9
2022-10-11T18:51:55.101Z,1451.5
2022-10-11T18:53:38.796Z,1450.6
2022-10-11T18:55:22.510Z,1448.8
2022-10-11T18:57:06.206Z,1451.2
2022-10-11T18:58:49.905Z,1449.6
2022-10-11T19:00:33.613Z,1446.6
2022-10-11T19:02:17.328Z,1448.4
2022-10-11T19:04:01.014Z,1448
2022-10-11T19:05:44.719Z,1451.1
2022-10-11T19:07:28.455Z,1662.2
2022-10-11T19:09:12.125Z,1715.1
2022-10-11T19:10:55.820Z,1783.7
2022-10-11T19:12:39.544Z,1846.1
2022-10-11T19:14:23.266Z,1796.2
2022-10-11T19:16:06.970Z,1711.3
2022-10-11T19:17:50.665Z,1698.9
2022-10-11T19:19:34.343Z,1644.6
2022-10-11T19:21:18.076Z,1608.9
2022-10-11T19:23:01.757Z,1609.3
2022-10-11T19:24:45.469Z,1609.9
2022-10-11T19:26:29.238Z,1613.4
2022-10-11T19:28:12.856Z,1613.2
2022-10-11T19:29:56.574Z,1609.2
2022-10-11T19:31:40.284Z,1608.4
2022-10-11T19:33:23.975Z,1608.3
2022-10-11T19:35:07.661Z,1604.8
2022-10-11T19:36:51.370Z,1605
2022-10-11T19:38:35.054Z,1603
2022-10-11T19:40:18.762Z,1602.4
2022-10-11T19:42:02.468Z,1606.5
2022-10-11T19:43:46.177Z,1609.1
2022-10-11T19:45:29.877Z,1610.8
2022-10-11T19:47:13.576Z,1610.8
2022-10-11T19:48:57.376Z,1609.2
2022-10-11T19:50:41.070Z,1609.7
2022-10-11T19:52:24.727Z,1612.4
2022-10-11T19:54:08.393Z,1611.4
2022-10-11T19:55:52.089Z,1610.7
2022-10-11T19:57:35.808Z,1605.8
2022-10-11T19:59:19.520Z,1599.4
2022-10-11T20:01:03.201Z,1597.8
2022-10-11T20:02:46.924Z,1596
2022-10-11T20:04:30.626Z,1598.1
2022-10-11T20:06:14.303Z,1597.9
2022-10-11T20:07:58.007Z,1597.1
2022-10-11T20:09:41.719Z,1594.7
2022-10-11T20:11:25.419Z,1588.5
2022-10-11T20:13:09.116Z,1590.1
2022-10-11T20:14:52.971Z,1591
2022-10-11T20:16:36.567Z,1591.3
2022-10-11T20:18:20.307Z,1591.9
2022-10-11T20:20:04.043Z,1590.2
2022-10-11T20:21:47.782Z,1591.6
2022-10-11T20:23:31.485Z,1588.9
2022-10-11T20:25:15.167Z,1587.1
2022-10-11T20:26:58.864Z,1583
2022-10-11T20:28:42.573Z,1575.9
2022-10-11T20:30:26.170Z,1571.2
2022-10-11T20:32:09.936Z,1571.6
2022-10-11T20:33:53.549Z,1575.2
2022-10-11T20:35:37.355Z,1575.5
2022-10-11T20:37:21.037Z,1580.6
2022-10-11T20:39:04.705Z,1580.4
2022-10-11T20:40:48.393Z,1579.6
2022-10-11T20:42:32.136Z,1582.6
2022-10-11T20:44:15.786Z,1585.5
2022-10-11T20:45:59.585Z,1585.5
2022-10-11T20:47:43.168Z,1585.7
2022-10-11T20:49:26.952Z,1586.7
2022-10-11T20:51:10.614Z,1585.5
2022-10-11T20:52:54.320Z,1588.3
2022-10-11T20:54:38.067Z,1583.5
2022-10-11T20:56:21.685Z,1582.6
2022-10-11T20:58:05.387Z,1586.1
2022-10-11T20:59:49.098Z,1585
2022-10-11T21:01:32.847Z,1584.6
2022-10-11T21:03:16.526Z,1588.2
2022-10-11T21:05:00.261Z,1591.8
2022-10-11T21:06:43.908Z,1587.8
2022-10-11T21:08:27.726Z,1642.6
2022-10-11T21:10:11.439Z,1724.9
2022-10-11T21:11:55.126Z,1587.6
2022-10-11T21:13:38.809Z,1553.8
2022-10-11T21:15:22.417Z,1548.1
2022-10-11T21:17:06.162Z,1547.9
2022-10-11T21:18:49.850Z,1547.2
2022-10-11T21:20:33.526Z,1550
2022-10-11T21:22:17.282Z,1550.6
2022-10-11T21:24:01.002Z,1547.5
2022-10-11T21:25:44.741Z,1545.9
2022-10-11T21:27:28.337Z,1548.2
2022-10-11T21:29:12.067Z,1550.6
2022-10-11T21:30:55.739Z,1551.2
2022-10-11T21:32:39.523Z,1544.2
2022-10-11T21:34:23.140Z,1545.5
2022-10-11T21:36:06.852Z,1545.6
2022-10-11T21:37:50.542Z,1545.7
2022-10-11T21:39:34.298Z,1543.9
2022-10-11T21:41:17.948Z,1542.8
2022-10-11T21:43:01.707Z,1541.3
2022-10-11T21:44:45.515Z,1547.1
2022-10-11T21:46:29.059Z,1547.1
2022-10-11T21:48:12.767Z,1542.2
2022-10-11T21:49:56.517Z,1538.6
2022-10-11T21:51:40.240Z,1537.7
2022-10-11T21:53:23.958Z,1536.9
2022-10-11T21:55:07.612Z,1541.5
2022-10-11T21:56:51.372Z,1540.3
2022-10-11T21:58:34.984Z,1536
2022-10-11T22:00:18.763Z,1532
2022-10-11T22:02:02.408Z,1528.1
2022-10-11T22:03:46.094Z,1525.8
2022-10-11T22:05:29.787Z,1521.4
2022-10-11T22:07:13.492Z,1516.9
2022-10-11T22:08:57.235Z,1511.8
2022-10-11T22:10:40.884Z,1504.5
2022-10-11T22:12:24.600Z,1500.9
2022-10-11T22:14:08.295Z,1496.6
2022-10-11T22:15:51.994Z,1493
2022-10-11T22:17:35.701Z,1486.3
2022-10-11T22:19:19.401Z,1484